createdAt,value
2022-09-04T00:01:04.742Z,2.45
2022-09-04T00:03:35.401Z,2.30
2022-09-04T00:06:05.634Z,2.20
2022-09-04T00:09:16.887Z,2.17
2022-09-04T00:11:50.947Z,1.92
2022-09-04T00:14:32.629Z,1.88
2022-09-04T00:17:06.766Z,2.40
2022-09-04T00:19:56.300Z,2.13
2022-09-04T00:22:31.467Z,2.63
2022-09-04T00:25:46.639Z,2.47
2022-09-04T00:28:29.371Z,3.55
2022-09-04T00:31:04.362Z,2.80
2022-09-04T00:33:41.157Z,2.90
2022-09-04T00:36:11.379Z,6.25
2022-09-04T00:38:55.060Z,5.22
2022-09-04T00:41:32.813Z,4.45
2022-09-04T00:44:20.571Z,2.25
2022-09-04T00:47:05.266Z,1.85
2022-09-04T00:49:37.634Z,2.47
2022-09-04T00:52:09.826Z,2.03
2022-09-04T00:55:18.422Z,2.42
2022-09-04T00:57:59.881Z,3.03
2022-09-04T01:00:30.682Z,2.97
2022-09-04T01:03:09.464Z,3.65
2022-09-04T01:05:51.324Z,3.25
2022-09-04T01:08:48.225Z,2.75
2022-09-04T01:11:26.940Z,2.38
2022-09-04T01:14:00.672Z,3.55
2022-09-04T01:16:34.555Z,4.38
2022-09-04T01:19:24.098Z,3.50
2022-09-04T01:22:09.617Z,2.88
2022-09-04T01:25:05.941Z,2.70
2022-09-04T01:27:59.533Z,1.77
2022-09-04T01:30:26.081Z,1.83
2022-09-04T01:33:10.925Z,1.75
2022-09-04T01:36:14.992Z,2.45
2022-09-04T01:38:43.776Z,3.83
2022-09-04T01:41:38.511Z,3.90
2022-09-04T01:44:10.234Z,3.55
2022-09-04T01:46:45.456Z,2.70
2022-09-04T01:49:28.087Z,3.50
2022-09-04T01:52:28.249Z,3.30
2022-09-04T01:55:07.323Z,5.00
2022-09-04T01:58:00.515Z,3.40
2022-09-04T02:00:37.821Z,5.05
2022-09-04T02:03:22.974Z,3.72
2022-09-04T02:06:30.159Z,4.70
2022-09-04T02:09:15.486Z,4.72
2022-09-04T02:11:56.984Z,4.85
2022-09-04T02:14:27.553Z,4.78
2022-09-04T02:17:04.053Z,3.78
2022-09-04T02:19:37.931Z,3.60
2022-09-04T02:22:19.657Z,2.83
2022-09-04T02:25:13.886Z,3.83
2022-09-04T02:27:58.392Z,2.33
2022-09-04T02:30:24.904Z,2.42
2022-09-04T02:33:30.878Z,3.13
2022-09-04T02:36:25.666Z,1.95
2022-09-04T02:38:52.048Z,2.63
2022-09-04T02:41:52.377Z,2.35
2022-09-04T02:44:37.730Z,2.03
2022-09-04T02:47:22.984Z,2.13
2022-09-04T02:50:28.899Z,1.80
2022-09-04T02:53:10.457Z,2.20
2022-09-04T02:56:09.116Z,3.00
2022-09-04T02:58:57.878Z,2.03
2022-09-04T03:01:49.923Z,3.00
2022-09-04T03:04:27.994Z,2.33
2022-09-04T03:07:13.813Z,2.60
2022-09-04T03:09:50.127Z,1.83
2022-09-04T03:12:26.320Z,2.28
2022-09-04T03:15:04.823Z,2.33
2022-09-04T03:17:49.340Z,2.70
2022-09-04T03:20:24.297Z,3.13
2022-09-04T03:22:57.686Z,2.28
2022-09-04T03:25:51.648Z,2.30
2022-09-04T03:28:28.010Z,2.85
2022-09-04T03:30:56.724Z,2.50
2022-09-04T03:33:48.489Z,3.72
2022-09-04T03:36:21.846Z,3.13
2022-09-04T03:39:09.399Z,2.85
2022-09-04T03:41:48.232Z,3.20
2022-09-04T03:44:27.674Z,2.65
2022-09-04T03:47:05.587Z,3.08
2022-09-04T03:49:46.987Z,2.13
2022-09-04T03:52:26.077Z,2.60
2022-09-04T03:55:01.015Z,2.60
2022-09-04T03:57:54.397Z,2.20
2022-09-04T04:00:21.950Z,2.20
2022-09-04T04:03:12.552Z,1.90
2022-09-04T04:05:48.288Z,1.73
2022-09-04T04:08:20.168Z,1.60
2022-09-04T04:11:31.272Z,1.92
2022-09-04T04:14:07.361Z,2.13
2022-09-04T04:17:12.593Z,3.33
2022-09-04T04:19:53.437Z,2.53
2022-09-04T04:22:25.765Z,2.33
2022-09-04T04:25:12.007Z,1.90
2022-09-04T04:27:57.991Z,2.20
2022-09-04T04:30:24.657Z,1.85
2022-09-04T04:33:06.059Z,2.25
2022-09-04T04:35:41.666Z,1.90
2022-09-04T04:38:24.747Z,2.30
2022-09-04T04:41:21.400Z,1.73
2022-09-04T04:43:47.812Z,1.92
2022-09-04T04:46:16.535Z,1.73
2022-09-04T04:49:04.244Z,1.90
2022-09-04T04:51:53.617Z,1.77
2022-09-04T04:54:25.930Z,2.20
2022-09-04T04:57:06.203Z,1.92
2022-09-04T04:59:40.155Z,2.05
2022-09-04T05:02:34.901Z,3.88
2022-09-04T05:05:14.321Z,2.83
2022-09-04T05:07:48.634Z,1.90
2022-09-04T05:10:44.253Z,3.15
2022-09-04T05:13:30.590Z,1.58
2022-09-04T05:16:23.036Z,1.73
2022-09-04T05:18:58.568Z,1.92
2022-09-04T05:21:57.620Z,2.85
2022-09-04T05:24:43.074Z,3.00
2022-09-04T05:27:33.977Z,2.03
2022-09-04T05:30:12.436Z,2.07
2022-09-04T05:33:11.018Z,4.22
2022-09-04T05:35:48.376Z,2.40
2022-09-04T05:38:55.409Z,1.63
2022-09-04T05:41:40.614Z,2.38
2022-09-04T05:44:40.091Z,3.13
2022-09-04T05:47:57.506Z,3.55
2022-09-04T05:50:41.806Z,6.40
2022-09-04T05:53:31.986Z,14.05
2022-09-04T05:56:37.385Z,2.90
2022-09-04T05:59:06.654Z,4.88
2022-09-04T06:01:33.143Z,3.78
2022-09-04T06:03:59.514Z,3.75
2022-09-04T06:06:56.264Z,3.42
2022-09-04T06:10:04.083Z,2.67
2022-09-04T06:12:36.166Z,3.40
2022-09-04T06:15:14.895Z,3.90
2022-09-04T06:17:41.305Z,3.35
2022-09-04T06:20:46.856Z,3.22
2022-09-04T06:23:24.208Z,2.67
2022-09-04T06:26:12.659Z,2.35
2022-09-04T06:29:05.848Z,1.92
2022-09-04T06:31:34.557Z,1.95
2022-09-04T06:34:15.741Z,1.73
2022-09-04T06:36:53.491Z,1.55
2022-09-04T06:39:38.019Z,1.40
2022-09-04T06:42:15.286Z,1.55
2022-09-04T06:45:09.845Z,1.63
2022-09-04T06:48:00.899Z,1.38
2022-09-04T06:50:27.453Z,1.30
2022-09-04T06:53:04.384Z,1.33
2022-09-04T06:55:44.503Z,1.35
2022-09-04T06:58:10.864Z,1.20
2022-09-04T07:00:53.419Z,1.13
2022-09-04T07:03:29.233Z,1.00
2022-09-04T07:06:05.126Z,1.10
2022-09-04T07:09:15.411Z,1.15
2022-09-04T07:12:23.821Z,0.95
2022-09-04T07:15:17.957Z,0.90
2022-09-04T07:18:12.591Z,0.70
2022-09-04T07:21:14.706Z,0.70
2022-09-04T07:23:50.155Z,0.80
2022-09-04T07:26:26.856Z,0.93
2022-09-04T07:29:10.772Z,0.90
2022-09-04T07:31:44.611Z,0.88
2022-09-04T07:34:14.072Z,1.00
2022-09-04T07:37:12.019Z,0.60
2022-09-04T07:40:04.344Z,0.90
2022-09-04T07:42:45.755Z,1.00
2022-09-04T07:45:32.384Z,0.90
2022-09-04T07:48:19.178Z,0.80
2022-09-04T07:51:22.059Z,0.80
2022-09-04T07:54:07.251Z,0.68
2022-09-04T07:57:07.851Z,0.80
2022-09-04T07:59:49.608Z,0.90
2022-09-04T08:02:50.411Z,0.90
2022-09-04T08:05:26.120Z,1.00
2022-09-04T08:08:14.549Z,0.95
2022-09-04T08:10:42.279Z,1.10
2022-09-04T08:13:43.079Z,0.70
2022-09-04T08:16:30.816Z,0.80
2022-09-04T08:19:21.851Z,0.80
2022-09-04T08:21:52.746Z,0.90
2022-09-04T08:24:28.360Z,0.60
2022-09-04T08:27:19.115Z,0.85
2022-09-04T08:29:47.590Z,0.90
2022-09-04T08:32:52.933Z,0.60
2022-09-04T08:35:26.159Z,0.60
2022-09-04T08:38:01.670Z,0.88
2022-09-04T08:40:53.127Z,0.63
2022-09-04T08:43:28.670Z,0.63
2022-09-04T08:46:14.735Z,0.73
2022-09-04T08:48:56.258Z,0.60
2022-09-04T08:51:29.556Z,0.60
2022-09-04T08:54:14.702Z,0.80
2022-09-04T08:56:59.691Z,0.60
2022-09-04T08:59:44.629Z,0.73
2022-09-04T09:02:26.277Z,0.85
2022-09-04T09:05:04.942Z,0.90
2022-09-04T09:07:58.412Z,0.80
2022-09-04T09:10:44.866Z,0.60
2022-09-04T09:13:42.567Z,0.60
2022-09-04T09:16:15.003Z,0.70
2022-09-04T09:19:07.570Z,0.50
2022-09-04T09:22:00.896Z,0.57
2022-09-04T09:24:49.461Z,0.80
2022-09-04T09:27:28.148Z,0.70
2022-09-04T09:30:13.856Z,0.60
2022-09-04T09:33:25.018Z,0.85
2022-09-04T09:36:17.204Z,0.60
2022-09-04T09:38:43.623Z,0.70
2022-09-04T09:41:41.926Z,0.70
2022-09-04T09:44:59.322Z,0.80
2022-09-04T09:47:52.268Z,0.60
2022-09-04T09:50:28.926Z,0.60
2022-09-04T09:53:22.554Z,0.60
2022-09-04T09:56:16.884Z,0.60
2022-09-04T09:59:17.443Z,0.70
2022-09-04T10:02:08.957Z,0.88
2022-09-04T10:04:57.234Z,0.80
2022-09-04T10:08:04.160Z,0.60
2022-09-04T10:11:23.726Z,0.60
2022-09-04T10:14:01.666Z,0.68
2022-09-04T10:16:36.423Z,0.80
2022-09-04T10:19:27.770Z,0.80
2022-09-04T10:22:26.951Z,0.70
2022-09-04T10:25:31.118Z,0.57
2022-09-04T10:28:09.125Z,0.90
2022-09-04T10:31:06.322Z,0.77
2022-09-04T10:33:50.651Z,0.75
2022-09-04T10:36:54.152Z,0.80
2022-09-04T10:40:03.385Z,0.77
2022-09-04T10:42:45.341Z,0.80
2022-09-04T10:45:21.142Z,0.75
2022-09-04T10:48:12.901Z,0.80
2022-09-04T10:50:58.140Z,0.60
2022-09-04T10:54:07.774Z,0.70
2022-09-04T10:56:58.788Z,0.60
2022-09-04T11:00:01.574Z,0.60
2022-09-04T11:03:11.193Z,0.75
2022-09-04T11:05:50.239Z,0.60
2022-09-04T11:08:38.999Z,0.77
2022-09-04T11:11:14.124Z,0.70
2022-09-04T11:14:18.033Z,0.75
2022-09-04T11:16:59.367Z,1.05
2022-09-04T11:19:37.730Z,1.00
2022-09-04T11:22:41.133Z,0.93
2022-09-04T11:25:10.493Z,0.95
2022-09-04T11:28:16.910Z,0.85
2022-09-04T11:31:13.220Z,1.00
2022-09-04T11:33:46.060Z,0.80
2022-09-04T11:36:22.425Z,1.00
2022-09-04T11:39:10.155Z,0.90
2022-09-04T11:42:05.790Z,0.75
2022-09-04T11:44:35.114Z,0.80
2022-09-04T11:47:19.587Z,0.68
2022-09-04T11:49:52.655Z,0.70
2022-09-04T11:52:50.635Z,0.95
2022-09-04T11:55:28.900Z,1.02
2022-09-04T11:58:10.367Z,0.70
2022-09-04T12:00:58.353Z,0.85
2022-09-04T12:04:05.772Z,1.10
2022-09-04T12:06:46.209Z,0.85
2022-09-04T12:09:30.990Z,0.90
2022-09-04T12:12:11.828Z,0.80
2022-09-04T12:15:09.492Z,0.90
2022-09-04T12:17:56.453Z,1.00
2022-09-04T12:20:45.406Z,0.88
2022-09-04T12:23:48.368Z,0.90
2022-09-04T12:26:33.445Z,0.90
2022-09-04T12:29:11.034Z,0.80
2022-09-04T12:32:07.090Z,0.77
2022-09-04T12:34:50.179Z,1.17
2022-09-04T12:37:44.631Z,0.80
2022-09-04T12:40:29.370Z,0.90
2022-09-04T12:43:21.334Z,0.80
2022-09-04T12:45:53.905Z,0.90
2022-09-04T12:48:35.946Z,0.90
2022-09-04T12:51:17.414Z,0.90
2022-09-04T12:54:11.337Z,0.95
2022-09-04T12:56:49.567Z,0.90
2022-09-04T12:59:19.598Z,1.10
2022-09-04T13:01:59.234Z,1.00
2022-09-04T13:04:40.211Z,0.98
2022-09-04T13:07:31.451Z,0.85
2022-09-04T13:10:06.070Z,1.20
2022-09-04T13:12:42.256Z,0.80
2022-09-04T13:15:21.696Z,1.00
2022-09-04T13:18:03.853Z,0.95
2022-09-04T13:20:51.550Z,1.05
2022-09-04T13:23:35.651Z,0.90
2022-09-04T13:26:21.960Z,1.00
2022-09-04T13:28:51.387Z,1.00
2022-09-04T13:31:46.618Z,0.90
2022-09-04T13:34:18.855Z,1.05
2022-09-04T13:36:59.157Z,1.48
2022-09-04T13:39:25.568Z,0.93
2022-09-04T13:42:19.693Z,1.17
2022-09-04T13:45:13.205Z,1.15
2022-09-04T13:47:44.979Z,1.02
2022-09-04T13:50:26.255Z,0.98
2022-09-04T13:52:59.513Z,1.00
2022-09-04T13:55:34.998Z,1.20
2022-09-04T13:58:11.283Z,0.95
2022-09-04T14:00:45.850Z,0.73
2022-09-04T14:03:24.224Z,0.93
2022-09-04T14:05:53.287Z,1.00
2022-09-04T14:08:23.298Z,1.08
2022-09-04T14:11:12.252Z,0.90
2022-09-04T14:14:03.208Z,0.95
2022-09-04T14:16:36.703Z,1.00
2022-09-04T14:19:16.003Z,0.80
2022-09-04T14:22:04.560Z,0.90
2022-09-04T14:24:58.039Z,1.10
2022-09-04T14:27:52.312Z,1.00
2022-09-04T14:30:23.746Z,1.30
2022-09-04T14:33:08.475Z,1.23
2022-09-04T14:35:52.955Z,1.10
2022-09-04T14:38:36.318Z,1.30
2022-09-04T14:41:10.928Z,1.40
2022-09-04T14:43:59.481Z,1.17
2022-09-04T14:46:55.792Z,1.23
2022-09-04T14:49:31.586Z,1.00
2022-09-04T14:52:03.049Z,0.90
2022-09-04T14:54:36.589Z,1.10
2022-09-04T14:57:21.779Z,1.00
2022-09-04T14:59:57.216Z,1.00
2022-09-04T15:02:47.482Z,1.02
2022-09-04T15:05:18.105Z,1.17
2022-09-04T15:07:44.534Z,1.38
2022-09-04T15:10:25.890Z,1.35
2022-09-04T15:12:54.620Z,0.90
2022-09-04T15:15:39.097Z,1.08
2022-09-04T15:18:17.962Z,1.00
2022-09-04T15:20:58.555Z,1.10
2022-09-04T15:23:47.128Z,0.80
2022-09-04T15:26:35.007Z,0.88
2022-09-04T15:29:12.305Z,1.00
2022-09-04T15:31:40.082Z,1.20
2022-09-04T15:34:12.392Z,1.15
2022-09-04T15:36:44.239Z,0.90
2022-09-04T15:39:23.421Z,1.33
2022-09-04T15:41:52.378Z,2.95
2022-09-04T15:44:40.753Z,1.85
2022-09-04T15:47:17.072Z,1.40
2022-09-04T15:50:04.462Z,0.70
2022-09-04T15:52:57.446Z,1.00
2022-09-04T15:55:30.082Z,0.80
2022-09-04T15:58:19.556Z,1.10
2022-09-04T16:00:56.451Z,0.85
2022-09-04T16:03:27.733Z,1.05
2022-09-04T16:06:06.197Z,0.90
2022-09-04T16:08:41.201Z,1.23
2022-09-04T16:11:26.231Z,1.20
2022-09-04T16:14:11.206Z,1.25
2022-09-04T16:16:46.937Z,2.22
2022-09-04T16:19:25.130Z,1.55
2022-09-04T16:22:05.056Z,1.52
2022-09-04T16:24:41.166Z,0.90
2022-09-04T16:27:11.421Z,1.30
2022-09-04T16:29:51.065Z,0.90
2022-09-04T16:32:22.401Z,1.70
2022-09-04T16:34:55.364Z,1.20
2022-09-04T16:37:32.653Z,1.13
2022-09-04T16:40:22.747Z,1.25
2022-09-04T16:42:53.223Z,1.33
2022-09-04T16:45:22.514Z,1.20
2022-09-04T16:48:33.983Z,1.40
2022-09-04T16:50:54.323Z,1.15
2022-09-04T16:53:40.682Z,1.02
2022-09-04T16:56:42.294Z,1.30
2022-09-04T16:59:39.295Z,1.02
2022-09-04T17:02:17.544Z,1.15
2022-09-04T17:04:48.557Z,1.15
2022-09-04T17:07:33.277Z,1.20
2022-09-04T17:10:05.369Z,1.17
2022-09-04T17:12:40.290Z,1.25
2022-09-04T17:15:22.640Z,0.90
2022-09-04T17:17:53.843Z,1.00
2022-09-04T17:21:00.272Z,1.10
2022-09-04T17:29:01.229Z,1.25
2022-09-04T17:29:15.230Z,1.10
2022-09-04T17:29:37.248Z,1.20
2022-09-04T17:34:18.157Z,1.23
2022-09-04T17:40:43.137Z,1.20
2022-09-04T17:40:47.773Z,0.93
2022-09-04T17:41:36.176Z,1.00
2022-09-04T17:44:19.623Z,1.17
2022-09-04T17:47:07.703Z,1.10
2022-09-04T17:49:36.562Z,1.15
2022-09-04T17:52:07.198Z,0.90
2022-09-04T17:54:42.610Z,0.98
2022-09-04T17:57:42.092Z,1.10
2022-09-04T18:00:15.960Z,1.20
2022-09-04T18:02:49.806Z,2.13
2022-09-04T18:05:27.488Z,1.67
2022-09-04T18:08:08.037Z,1.60
2022-09-04T18:10:51.893Z,1.17
2022-09-04T18:13:37.840Z,0.82
2022-09-04T18:16:10.533Z,1.02
2022-09-04T18:18:42.927Z,1.17
2022-09-04T18:21:24.114Z,0.95
2022-09-04T18:24:12.585Z,1.08
2022-09-04T18:26:42.605Z,1.00
2022-09-04T18:32:57.610Z,1.02
2022-09-04T18:37:10.140Z,1.00
2022-09-04T18:37:22.083Z,0.82
2022-09-04T18:39:13.432Z,0.93
2022-09-04T18:46:28.844Z,1.00
2022-09-04T18:50:23.502Z,0.98
2022-09-04T18:50:50.534Z,1.00
2022-09-04T18:53:59.966Z,1.20
2022-09-04T18:56:33.462Z,0.90
2022-09-04T18:59:02.635Z,1.20
2022-09-04T19:01:45.548Z,1.05
2022-09-04T19:04:30.113Z,1.05
2022-09-04T19:07:12.039Z,1.20
2022-09-04T19:09:56.080Z,1.30
2022-09-04T19:12:36.941Z,1.20
2022-09-04T19:15:36.075Z,1.00
2022-09-04T19:18:20.353Z,1.13
2022-09-04T19:20:55.178Z,1.10
2022-09-04T19:23:30.288Z,1.00
2022-09-04T19:26:03.367Z,1.20
2022-09-04T19:28:58.523Z,1.05
2022-09-04T19:31:39.338Z,1.20
2022-09-04T19:34:28.481Z,1.30
2022-09-04T19:37:02.247Z,1.58
2022-09-04T19:45:57.588Z,1.10
2022-09-04T19:46:05.050Z,1.38
2022-09-04T19:46:26.056Z,1.38
2022-09-04T19:49:58.408Z,1.30
2022-09-04T19:53:23.204Z,1.20
2022-09-04T19:55:05.107Z,1.35
2022-09-04T19:57:48.642Z,1.35
2022-09-04T20:00:31.135Z,1.20
2022-09-04T20:03:30.562Z,1.20
2022-09-04T20:06:21.051Z,0.90
2022-09-04T20:09:14.743Z,1.17
2022-09-04T20:11:52.657Z,1.15
2022-09-04T20:14:31.182Z,1.55
2022-09-04T20:17:13.581Z,1.10
2022-09-04T20:19:48.413Z,1.30
2022-09-04T20:22:37.335Z,1.20
2022-09-04T20:25:06.761Z,1.40
2022-09-04T20:27:49.327Z,1.30
2022-09-04T20:30:20.250Z,1.27
2022-09-04T20:33:02.205Z,1.30
2022-09-04T20:35:38.342Z,1.38
2022-09-04T20:38:23.107Z,1.27
2022-09-04T20:40:57.885Z,1.05
2022-09-04T20:44:11.638Z,1.45
2022-09-04T20:52:50.301Z,1.45
2022-09-04T20:52:51.667Z,1.20
2022-09-04T20:53:16.396Z,1.25
2022-09-04T20:56:02.864Z,1.20
2022-09-04T21:03:05.695Z,1.20
2022-09-04T21:03:18.176Z,1.48
2022-09-04T21:05:13.679Z,1.40
2022-09-04T21:07:49.498Z,1.70
2022-09-04T21:10:31.172Z,1.50
2022-09-04T21:13:13.399Z,1.58
2022-09-04T21:16:17.265Z,1.50
2022-09-04T21:19:12.900Z,1.60
2022-09-04T21:22:24.478Z,1.65
2022-09-04T21:25:22.561Z,1.70
2022-09-04T21:28:17.787Z,2.08
2022-09-04T21:31:03.050Z,1.90
2022-09-04T21:33:54.845Z,1.67
2022-09-04T21:36:41.295Z,2.10
2022-09-04T21:39:35.781Z,1.83
2022-09-04T21:42:16.580Z,1.50
2022-09-04T21:45:00.606Z,1.80
2022-09-04T21:47:48.490Z,1.83
2022-09-04T21:50:35.817Z,1.70
2022-09-04T21:53:09.465Z,1.67
2022-09-04T22:01:46.831Z,1.60
2022-09-04T22:02:37.963Z,1.40
2022-09-04T22:02:40.620Z,1.30
2022-09-04T22:05:07.105Z,1.40
2022-09-04T22:10:52.844Z,1.48
2022-09-04T22:13:29.612Z,1.60
2022-09-04T22:13:49.477Z,1.60
2022-09-04T22:16:29.743Z,1.20
2022-09-04T22:19:16.288Z,1.10
2022-09-04T22:21:52.540Z,1.10
2022-09-04T22:25:00.119Z,1.50
2022-09-04T22:28:09.021Z,1.25
2022-09-04T22:30:53.395Z,1.30
2022-09-04T22:33:48.446Z,1.20
2022-09-04T22:36:52.971Z,1.40
2022-09-04T22:39:57.736Z,1.35
2022-09-04T22:42:36.230Z,1.30
2022-09-04T22:45:28.570Z,1.50
2022-09-04T22:49:11.822Z,1.10
2022-09-04T22:52:10.038Z,1.38
2022-09-04T22:54:51.780Z,1.35
2022-09-04T22:57:33.679Z,1.50
2022-09-04T23:00:13.097Z,1.50
2022-09-04T23:03:15.260Z,1.40
2022-09-04T23:05:41.716Z,1.60
2022-09-04T23:13:20.659Z,1.73
2022-09-04T23:14:00.385Z,1.50
2022-09-04T23:15:11.515Z,1.20
2022-09-04T23:17:42.070Z,1.80
2022-09-04T23:26:39.351Z,1.38
2022-09-04T23:26:42.221Z,1.23
2022-09-04T23:26:59.186Z,1.50
2022-09-04T23:29:45.222Z,1.40
2022-09-04T23:32:39.765Z,1.63
2022-09-04T23:35:14.814Z,1.58
2022-09-04T23:37:45.006Z,1.90
2022-09-04T23:40:28.532Z,1.60
2022-09-04T23:43:07.688Z,1.77
2022-09-04T23:45:52.885Z,1.35
2022-09-04T23:48:52.074Z,1.25
2022-09-04T23:51:43.021Z,1.50
2022-09-04T23:54:30.920Z,1.48
2022-09-04T23:57:08.532Z,1.73
2022-09-04T23:59:54.306Z,1.70
